createdAt,value
2023-03-26T00:00:00.226Z,11.02
2023-03-26T00:02:43.170Z,14.68
2023-03-26T00:05:34.469Z,13.00
2023-03-26T00:08:18.813Z,14.75
2023-03-26T00:11:05.761Z,16.25
2023-03-26T00:16:33.046Z,13.18
2023-03-26T00:19:21.518Z,10.98
2023-03-26T00:21:55.742Z,16.08
2023-03-26T00:24:34.006Z,12.60
2023-03-26T00:27:12.931Z,13.80
2023-03-26T00:29:48.446Z,17.08
2023-03-26T00:35:28.562Z,12.60
2023-03-26T00:38:04.342Z,11.80
2023-03-26T00:40:47.295Z,11.38
2023-03-26T00:43:37.649Z,13.23
2023-03-26T00:46:17.757Z,11.13
2023-03-26T00:48:55.504Z,16.88
2023-03-26T00:51:36.092Z,15.77
2023-03-26T00:54:12.501Z,13.02
2023-03-26T00:57:05.594Z,14.45
2023-03-26T00:59:40.106Z,16.67
2023-03-26T01:02:28.530Z,15.30
2023-03-26T01:05:09.769Z,11.90
2023-03-26T01:07:47.230Z,12.80
2023-03-26T01:10:23.537Z,19.00
2023-03-26T01:12:56.597Z,11.80
2023-03-26T01:15:34.168Z,15.05
2023-03-26T01:21:09.029Z,11.63
2023-03-26T01:24:06.721Z,11.85
2023-03-26T01:27:09.808Z,13.27
2023-03-26T01:30:08.275Z,13.60
2023-03-26T01:33:15.401Z,13.23
2023-03-26T01:36:40.737Z,15.95
2023-03-26T01:39:45.099Z,16.90
2023-03-26T01:42:23.308Z,11.88
2023-03-26T01:51:22.636Z,14.00
2023-03-26T01:54:08.045Z,15.30
2023-03-26T01:57:13.990Z,13.10
2023-03-26T02:00:17.218Z,14.32
2023-03-26T02:03:40.603Z,13.02
2023-03-26T02:06:27.900Z,10.85
2023-03-26T02:09:22.627Z,12.65
2023-03-26T02:12:22.371Z,14.52
2023-03-26T02:14:55.388Z,10.65
2023-03-26T02:17:42.886Z,16.02
2023-03-26T02:23:17.395Z,6.72
2023-03-26T02:25:55.755Z,19.92
2023-03-26T02:31:32.022Z,14.48
2023-03-26T02:34:07.578Z,11.60
2023-03-26T02:37:02.161Z,14.85
2023-03-26T02:39:59.334Z,14.43
2023-03-26T02:42:41.303Z,13.63
2023-03-26T02:45:59.816Z,12.65
2023-03-26T02:48:39.357Z,11.65
2023-03-26T02:51:26.328Z,12.85
2023-03-26T02:57:33.306Z,12.25
2023-03-26T03:00:24.419Z,15.13
2023-03-26T03:03:27.697Z,11.88
2023-03-26T03:08:59.192Z,17.50
2023-03-26T03:11:53.592Z,11.88
2023-03-26T03:14:36.427Z,11.23
2023-03-26T03:22:58.901Z,16.35
2023-03-26T03:25:44.490Z,10.65
2023-03-26T03:28:26.965Z,10.85
2023-03-26T03:31:02.721Z,12.20
2023-03-26T03:33:39.404Z,8.57
2023-03-26T03:36:19.793Z,11.30
2023-03-26T03:38:55.002Z,11.95
2023-03-26T03:41:31.364Z,10.53
2023-03-26T03:44:08.134Z,12.15
2023-03-26T03:46:55.658Z,14.85
2023-03-26T03:49:31.382Z,11.32
2023-03-26T03:52:17.032Z,9.55
2023-03-26T03:55:09.887Z,12.90
2023-03-26T03:57:42.117Z,13.35
2023-03-26T04:00:20.536Z,13.35
2023-03-26T04:03:14.288Z,9.65
2023-03-26T04:06:05.755Z,10.98
2023-03-26T04:08:43.835Z,9.57
2023-03-26T04:11:23.167Z,8.70
2023-03-26T04:14:04.813Z,8.55
2023-03-26T04:16:43.393Z,9.23
2023-03-26T04:19:51.901Z,8.20
2023-03-26T04:22:33.950Z,7.50
2023-03-26T04:25:39.235Z,11.48
2023-03-26T04:28:35.432Z,10.60
2023-03-26T04:34:46.066Z,10.35
2023-03-26T04:37:57.066Z,8.75
2023-03-26T04:40:47.318Z,10.85
2023-03-26T04:43:33.236Z,9.13
2023-03-26T04:46:07.852Z,7.55
2023-03-26T04:49:04.470Z,7.93
2023-03-26T04:51:59.369Z,7.90
2023-03-26T04:54:42.139Z,8.80
2023-03-26T04:57:41.772Z,9.85
2023-03-26T05:03:26.360Z,8.57
2023-03-26T05:06:00.108Z,8.18
2023-03-26T05:08:38.757Z,10.43
2023-03-26T05:11:17.470Z,9.63
2023-03-26T05:14:02.833Z,9.68
2023-03-26T05:16:46.699Z,6.15
2023-03-26T05:19:25.477Z,8.00
2023-03-26T05:22:12.804Z,6.90
2023-03-26T05:28:03.350Z,5.13
2023-03-26T05:30:49.358Z,5.82
2023-03-26T05:33:42.725Z,9.38
2023-03-26T05:36:20.808Z,7.55
2023-03-26T05:41:39.922Z,6.80
2023-03-26T05:44:21.880Z,7.38
2023-03-26T05:47:27.285Z,7.28
2023-03-26T05:50:14.240Z,8.02
2023-03-26T05:53:08.465Z,6.47
2023-03-26T05:55:59.106Z,6.80
2023-03-26T05:58:57.179Z,5.53
2023-03-26T06:01:43.329Z,8.93
2023-03-26T06:04:25.651Z,6.47
2023-03-26T06:07:03.970Z,7.03
2023-03-26T06:12:43.005Z,6.32
2023-03-26T06:18:21.676Z,5.43
2023-03-26T06:20:58.175Z,6.35
2023-03-26T06:23:41.198Z,6.07
2023-03-26T06:26:17.677Z,4.95
2023-03-26T06:29:16.236Z,8.68
2023-03-26T06:32:18.476Z,4.28
2023-03-26T06:35:22.324Z,7.03
2023-03-26T06:38:04.496Z,6.25
2023-03-26T06:40:57.657Z,6.65
2023-03-26T06:43:43.557Z,5.85
2023-03-26T06:46:13.817Z,8.80
2023-03-26T06:48:52.205Z,5.75
2023-03-26T06:51:27.292Z,5.07
2023-03-26T06:54:18.304Z,8.05
2023-03-26T06:57:02.749Z,4.97
2023-03-26T06:59:37.850Z,6.50
2023-03-26T07:02:15.752Z,5.78
2023-03-26T07:05:04.222Z,5.78
2023-03-26T07:07:47.387Z,11.00
2023-03-26T07:10:26.456Z,4.88
2023-03-26T07:13:21.078Z,4.85
2023-03-26T07:16:25.414Z,5.10
2023-03-26T07:19:04.397Z,7.97
2023-03-26T07:21:37.935Z,6.10
2023-03-26T07:24:13.777Z,7.22
2023-03-26T07:27:24.208Z,5.55
2023-03-26T07:30:24.233Z,7.13
2023-03-26T07:33:18.934Z,6.43
2023-03-26T07:36:09.808Z,5.80
2023-03-26T07:38:51.908Z,4.43
2023-03-26T07:42:11.049Z,5.00
2023-03-26T07:47:57.236Z,5.63
2023-03-26T07:50:44.634Z,4.45
2023-03-26T07:53:26.958Z,6.03
2023-03-26T07:56:58.882Z,5.22
2023-03-26T07:59:43.677Z,4.95
2023-03-26T08:02:21.136Z,4.65
2023-03-26T08:05:36.518Z,4.88
2023-03-26T08:08:37.310Z,6.53
2023-03-26T08:11:38.887Z,4.97
2023-03-26T08:14:31.504Z,4.43
2023-03-26T08:17:43.944Z,4.82
2023-03-26T08:20:32.888Z,4.80
2023-03-26T08:26:42.337Z,4.50
2023-03-26T08:29:33.354Z,4.25
2023-03-26T08:32:32.714Z,4.28
2023-03-26T08:35:29.649Z,4.25
2023-03-26T08:38:11.365Z,6.82
2023-03-26T08:41:34.747Z,4.35
2023-03-26T08:44:20.763Z,4.50
2023-03-26T08:47:05.178Z,3.50
2023-03-26T08:50:32.080Z,2.53
2023-03-26T08:53:19.590Z,4.15
2023-03-26T08:56:23.345Z,4.80
2023-03-26T08:59:20.076Z,5.45
2023-03-26T09:02:27.312Z,3.90
2023-03-26T09:05:14.608Z,3.95
2023-03-26T09:11:30.733Z,3.20
2023-03-26T09:14:22.738Z,3.95
2023-03-26T09:17:23.511Z,4.55
2023-03-26T09:20:29.641Z,3.78
2023-03-26T09:23:36.007Z,4.15
2023-03-26T09:26:35.517Z,3.75
2023-03-26T09:29:39.860Z,3.03
2023-03-26T09:32:29.551Z,4.57
2023-03-26T09:35:47.462Z,3.55
2023-03-26T09:38:35.709Z,3.83
2023-03-26T09:41:48.556Z,4.93
2023-03-26T09:44:35.748Z,4.53
2023-03-26T09:47:37.761Z,4.68
2023-03-26T09:53:33.683Z,5.78
2023-03-26T09:56:31.744Z,6.60
2023-03-26T09:59:34.511Z,5.15
2023-03-26T10:02:45.529Z,3.58
2023-03-26T10:05:49.912Z,4.13
2023-03-26T10:08:32.341Z,3.05
2023-03-26T10:11:29.606Z,3.30
2023-03-26T10:14:26.627Z,4.43
2023-03-26T10:17:32.651Z,2.72
2023-03-26T10:20:54.861Z,5.10
2023-03-26T10:23:43.064Z,4.63
2023-03-26T10:26:35.075Z,3.03
2023-03-26T10:29:46.213Z,6.10
2023-03-26T10:32:39.520Z,4.57
2023-03-26T10:35:41.623Z,5.63
2023-03-26T10:38:52.107Z,5.38
2023-03-26T10:48:21.124Z,3.97
2023-03-26T10:51:15.075Z,2.97
2023-03-26T10:54:14.531Z,3.35
2023-03-26T10:56:55.538Z,5.95
2023-03-26T10:59:37.807Z,3.28
2023-03-26T11:02:30.924Z,4.30
2023-03-26T11:05:37.528Z,3.72
2023-03-26T11:08:33.415Z,3.72
2023-03-26T11:11:22.774Z,6.68
2023-03-26T11:14:15.080Z,3.38
2023-03-26T11:17:39.198Z,5.18
2023-03-26T11:23:45.804Z,4.63
2023-03-26T11:27:15.532Z,4.50
2023-03-26T11:30:28.662Z,3.00
2023-03-26T11:33:16.431Z,3.00
2023-03-26T11:36:04.181Z,4.05
2023-03-26T11:38:54.692Z,4.13
2023-03-26T11:41:40.377Z,3.45
2023-03-26T11:45:04.323Z,3.75
2023-03-26T11:48:59.856Z,3.17
2023-03-26T11:52:04.720Z,3.25
2023-03-26T11:55:08.047Z,3.90
2023-03-26T11:58:02.890Z,2.45
2023-03-26T12:00:48.369Z,5.57
2023-03-26T12:03:34.006Z,3.70
2023-03-26T12:06:37.476Z,3.65
2023-03-26T12:09:34.852Z,2.33
2023-03-26T12:18:33.740Z,3.35
2023-03-26T12:24:33.688Z,2.70
2023-03-26T12:27:30.324Z,3.75
2023-03-26T12:30:25.424Z,3.33
2023-03-26T12:33:24.339Z,3.40
2023-03-26T12:35:55.343Z,4.00
2023-03-26T12:39:16.303Z,2.97
2023-03-26T12:44:43.637Z,3.33
2023-03-26T12:44:59.253Z,3.13
2023-03-26T12:48:04.316Z,3.28
2023-03-26T12:50:42.591Z,3.53
2023-03-26T12:53:36.454Z,2.45
2023-03-26T12:56:28.785Z,4.50
2023-03-26T12:59:54.096Z,2.80
2023-03-26T13:02:42.323Z,1.80
2023-03-26T13:05:38.552Z,3.50
2023-03-26T13:08:23.470Z,5.13
2023-03-26T13:14:07.626Z,3.47
2023-03-26T13:16:41.276Z,4.82
2023-03-26T13:19:28.747Z,2.33
2023-03-26T13:22:11.727Z,2.53
2023-03-26T13:25:07.550Z,2.10
2023-03-26T13:28:16.685Z,2.40
2023-03-26T13:30:48.947Z,4.90
2023-03-26T13:33:40.829Z,1.98
2023-03-26T13:36:53.643Z,3.50
2023-03-26T13:39:26.394Z,4.38
2023-03-26T13:42:56.950Z,3.75
2023-03-26T13:45:59.373Z,2.22
2023-03-26T13:48:37.865Z,2.65
2023-03-26T13:51:31.823Z,3.65
2023-03-26T13:54:33.032Z,4.05
2023-03-26T13:57:23.372Z,2.03
2023-03-26T14:00:00.683Z,2.90
2023-03-26T14:02:43.078Z,4.07
2023-03-26T14:05:28.307Z,2.35
2023-03-26T14:08:08.634Z,3.50
2023-03-26T14:10:53.912Z,2.88
2023-03-26T14:13:39.132Z,2.20
2023-03-26T14:16:22.295Z,4.03
2023-03-26T14:19:06.609Z,3.88
2023-03-26T14:22:02.067Z,2.42
2023-03-26T14:28:21.408Z,2.92
2023-03-26T14:31:01.498Z,4.15
2023-03-26T14:34:11.775Z,4.15
2023-03-26T14:37:09.106Z,2.80
2023-03-26T14:39:51.691Z,3.90
2023-03-26T14:42:30.917Z,2.70
2023-03-26T14:45:24.302Z,2.78
2023-03-26T14:48:33.608Z,2.20
2023-03-26T14:51:42.040Z,2.75
2023-03-26T14:54:28.876Z,4.25
2023-03-26T14:57:31.048Z,2.67
2023-03-26T15:00:08.645Z,3.33
2023-03-26T15:03:07.977Z,4.10
2023-03-26T15:05:58.949Z,3.78
2023-03-26T15:09:14.825Z,6.63
2023-03-26T15:12:14.949Z,2.83
2023-03-26T15:15:05.941Z,3.60
2023-03-26T15:17:50.441Z,3.38
2023-03-26T15:20:41.233Z,3.13
2023-03-26T15:23:46.664Z,3.65
2023-03-26T15:26:38.706Z,3.65
2023-03-26T15:29:42.817Z,3.90
2023-03-26T15:32:53.223Z,4.63
2023-03-26T15:35:26.736Z,4.65
2023-03-26T15:38:14.731Z,3.70
2023-03-26T15:41:06.835Z,3.25
2023-03-26T15:47:07.530Z,5.50
2023-03-26T15:50:04.738Z,5.25
2023-03-26T15:52:57.711Z,3.28
2023-03-26T15:56:01.217Z,3.85
2023-03-26T15:58:37.002Z,3.97
2023-03-26T16:01:32.640Z,3.55
2023-03-26T16:04:40.645Z,4.25
2023-03-26T16:07:43.363Z,3.50
2023-03-26T16:10:51.198Z,3.67
2023-03-26T16:13:53.162Z,3.75
2023-03-26T16:16:30.056Z,5.95
2023-03-26T16:19:25.723Z,4.70
2023-03-26T16:22:03.742Z,3.22
2023-03-26T16:24:36.755Z,3.20
2023-03-26T16:27:32.564Z,4.27
2023-03-26T16:30:14.069Z,4.28
2023-03-26T16:33:11.660Z,4.03
2023-03-26T16:35:54.463Z,7.65
2023-03-26T16:38:31.004Z,3.47
2023-03-26T16:41:25.071Z,5.65
2023-03-26T16:44:01.257Z,3.88
2023-03-26T16:46:36.647Z,4.63
2023-03-26T16:49:41.261Z,6.25
2023-03-26T16:52:52.170Z,4.35
2023-03-26T16:55:31.332Z,5.50
2023-03-26T16:58:16.001Z,4.72
2023-03-26T17:01:23.479Z,7.60
2023-03-26T17:04:26.152Z,4.07
2023-03-26T17:07:19.210Z,4.68
2023-03-26T17:10:07.381Z,3.97
2023-03-26T17:12:43.998Z,5.85
2023-03-26T17:15:28.864Z,5.15
2023-03-26T17:18:25.589Z,4.30
2023-03-26T17:21:16.431Z,4.63
2023-03-26T17:24:15.726Z,3.25
2023-03-26T17:27:03.676Z,10.10
2023-03-26T17:30:01.776Z,5.38
2023-03-26T17:33:11.628Z,5.68
2023-03-26T17:35:57.843Z,6.10
2023-03-26T17:38:50.224Z,5.32
2023-03-26T17:42:02.419Z,4.97
2023-03-26T17:45:04.445Z,4.45
2023-03-26T17:48:07.732Z,4.70
2023-03-26T17:51:21.769Z,3.35
2023-03-26T17:53:57.950Z,4.88
2023-03-26T17:56:38.343Z,5.88
2023-03-26T17:59:14.101Z,4.60
2023-03-26T18:01:57.600Z,5.20
2023-03-26T18:04:43.935Z,6.63
2023-03-26T18:07:37.211Z,4.32
2023-03-26T18:10:43.320Z,4.55
2023-03-26T18:13:36.781Z,5.90
2023-03-26T18:16:49.707Z,4.85
2023-03-26T18:19:24.817Z,4.22
2023-03-26T18:22:00.528Z,5.00
2023-03-26T18:24:36.243Z,7.30
2023-03-26T18:27:27.959Z,5.10
2023-03-26T18:30:06.054Z,4.85
2023-03-26T18:32:50.964Z,4.78
2023-03-26T18:38:13.869Z,5.50
2023-03-26T18:40:47.900Z,7.00
2023-03-26T18:43:34.879Z,6.03
2023-03-26T18:46:23.938Z,5.15
2023-03-26T18:49:01.205Z,5.22
2023-03-26T18:51:56.253Z,5.57
2023-03-26T18:54:32.312Z,6.13
2023-03-26T18:57:45.831Z,5.95
2023-03-26T19:00:52.789Z,7.10
2023-03-26T19:06:04.320Z,4.57
2023-03-26T19:08:38.051Z,5.00
2023-03-26T19:11:28.926Z,4.13
2023-03-26T19:14:19.643Z,5.72
2023-03-26T19:17:00.626Z,7.55
2023-03-26T19:20:03.303Z,4.57
2023-03-26T19:22:40.896Z,5.22
2023-03-26T19:25:27.611Z,5.22
2023-03-26T19:28:00.178Z,6.45
2023-03-26T19:30:41.768Z,6.03
2023-03-26T19:33:23.096Z,4.75
2023-03-26T19:36:17.322Z,6.45
2023-03-26T19:39:05.753Z,4.15
2023-03-26T19:41:44.186Z,4.97
2023-03-26T19:44:32.970Z,8.18
2023-03-26T19:47:35.124Z,7.97
2023-03-26T19:50:38.323Z,5.20
2023-03-26T19:53:19.066Z,7.88
2023-03-26T19:56:00.281Z,5.65
2023-03-26T19:58:44.913Z,7.28
2023-03-26T20:01:37.943Z,6.13
2023-03-26T20:04:14.986Z,7.38
2023-03-26T20:06:48.260Z,6.05
2023-03-26T20:09:20.912Z,6.13
2023-03-26T20:11:51.902Z,3.95
2023-03-26T20:14:28.678Z,5.55
2023-03-26T20:17:01.385Z,6.68
2023-03-26T20:19:31.344Z,5.70
2023-03-26T20:22:12.539Z,5.45
2023-03-26T20:24:45.701Z,6.13
2023-03-26T20:27:22.492Z,5.07
2023-03-26T20:30:08.065Z,7.05
2023-03-26T20:33:12.772Z,5.90
2023-03-26T20:35:49.046Z,4.50
2023-03-26T20:38:26.554Z,4.78
2023-03-26T20:44:11.939Z,4.85
2023-03-26T20:46:41.878Z,4.63
2023-03-26T20:49:17.648Z,4.40
2023-03-26T20:51:53.319Z,7.80
2023-03-26T20:54:27.644Z,7.60
2023-03-26T20:57:03.361Z,12.57
2023-03-26T20:59:33.029Z,7.82
2023-03-26T21:02:09.672Z,8.30
2023-03-26T21:04:42.533Z,6.28
2023-03-26T21:07:18.171Z,9.50
2023-03-26T21:13:01.684Z,6.97
2023-03-26T21:18:00.870Z,6.75
2023-03-26T21:20:31.148Z,8.23
2023-03-26T21:23:05.509Z,7.10
2023-03-26T21:25:35.199Z,8.63
2023-03-26T21:28:14.096Z,8.02
2023-03-26T21:30:44.641Z,7.28
2023-03-26T21:33:15.340Z,7.70
2023-03-26T21:35:46.375Z,6.65
2023-03-26T21:38:25.172Z,7.30
2023-03-26T21:40:59.002Z,5.15
2023-03-26T21:43:28.778Z,7.30
2023-03-26T21:45:58.906Z,9.35
2023-03-26T21:48:29.723Z,6.50
2023-03-26T21:51:03.834Z,5.85
2023-03-26T21:53:33.681Z,6.45
2023-03-26T21:56:25.972Z,6.95
2023-03-26T21:59:34.688Z,6.28
2023-03-26T22:02:21.470Z,5.45
2023-03-26T22:04:56.399Z,9.93
2023-03-26T22:07:56.391Z,6.30
